Time;durP1;ratioP1;P1;durP2;ratioP2;P2;SDS_P1;SDS_P2;PMS_P1;PMS_P2;Temp;Humidity;BMP_temperature;BMP_pressure;BME280_temperature;BME280_humidity;BME280_pressure;Samples;Min_cycle;Max_cycle;Signal;HPM_P1;HPM_P2
2023/08/29 00:00:30;;;;;;;4.00;3.53;;;13.70;41.40;;;;;;5073100;28;20621;-70
2023/08/29 00:02:55;;;;;;;4.40;3.80;;;13.70;42.10;;;;;;5071502;28;20557;-70
2023/08/29 00:05:21;;;;;;;4.50;3.50;;;13.80;39.80;;;;;;5072838;28;20185;-70
2023/08/29 00:07:47;;;;;;;3.43;3.10;;;13.80;41.20;;;;;;5072870;28;20178;-69
2023/08/29 00:10:12;;;;;;;5.00;4.10;;;13.70;39.50;;;;;;5072603;28;20242;-70
2023/08/29 00:12:41;;;;;;;3.60;2.93;;;13.70;41.20;;;;;;5071279;28;20209;-71
2023/08/29 00:15:08;;;;;;;5.07;4.57;;;13.80;41.30;;;;;;5072696;28;20173;-71
2023/08/29 00:17:34;;;;;;;4.13;3.73;;;13.80;40.30;;;;;;5072854;28;20899;-70
2023/08/29 00:20:00;;;;;;;4.43;4.07;;;13.70;39.50;;;;;;5072645;28;20417;-70
2023/08/29 00:22:26;;;;;;;4.70;4.30;;;13.60;41.20;;;;;;5071369;28;20181;-70
2023/08/29 00:24:52;;;;;;;6.10;4.33;;;13.60;43.10;;;;;;5072563;28;20441;-70
2023/08/29 00:27:21;;;;;;;5.57;3.70;;;13.70;43.90;;;;;;5072716;28;20170;-70
2023/08/29 00:29:46;;;;;;;5.83;5.07;;;13.80;40.40;;;;;;5071018;28;20418;-70
2023/08/29 00:32:12;;;;;;;4.67;3.27;;;13.70;40.20;;;;;;5070703;28;20953;-70
2023/08/29 00:34:38;;;;;;;4.20;3.80;;;13.70;41.10;;;;;;5072277;28;20213;-70
2023/08/29 00:37:04;;;;;;;4.83;4.33;;;13.80;40.30;;;;;;5072335;28;20204;-71
2023/08/29 00:39:29;;;;;;;5.07;4.20;;;13.80;39.50;;;;;;5071475;28;20198;-71
2023/08/29 00:41:55;;;;;;;7.13;3.90;;;13.80;39.00;;;;;;5072419;28;20437;-70
2023/08/29 00:44:22;;;;;;;5.60;3.87;;;13.80;39.60;;;;;;5072680;28;20231;-71
2023/08/29 00:46:47;;;;;;;5.63;4.87;;;13.70;38.60;;;;;;5072616;28;20256;-71
2023/08/29 00:49:19;;;;;;;5.53;4.30;;;13.70;39.70;;;;;;5072173;28;21001;-71
2023/08/29 00:51:45;;;;;;;4.60;4.03;;;13.70;39.50;;;;;;5071874;28;20221;-71
2023/08/29 00:54:14;;;;;;;7.70;4.03;;;13.70;39.30;;;;;;5072051;28;20456;-71
2023/08/29 00:56:40;;;;;;;4.43;4.03;;;13.70;36.40;;;;;;5072704;28;20493;-71
2023/08/29 00:59:05;;;;;;;4.40;4.00;;;13.70;38.50;;;;;;5073398;28;20407;-71
2023/08/29 01:01:32;;;;;;;6.53;3.87;;;13.80;38.60;;;;;;5076127;28;20424;-70
2023/08/29 01:03:59;;;;;;;4.30;3.70;;;13.80;39.60;;;;;;5075847;28;20188;-71
2023/08/29 01:06:24;;;;;;;4.60;4.10;;;13.80;38.70;;;;;;5075750;28;20973;-70
2023/08/29 01:08:51;;;;;;;5.67;5.00;;;13.70;38.80;;;;;;5075854;28;20426;-72
2023/08/29 01:11:22;;;;;;;5.90;4.33;;;13.80;37.80;;;;;;5075797;28;20552;-71
2023/08/29 01:13:59;;;;;;;5.07;3.70;;;13.80;38.60;;;;;;5075676;28;20452;-72
2023/08/29 01:16:31;;;;;;;5.60;4.80;;;13.80;37.10;;;;;;5075952;28;20438;-71
2023/08/29 01:18:57;;;;;;;5.07;3.37;;;13.80;38.30;;;;;;5075543;28;20409;-71
2023/08/29 01:21:29;;;;;;;4.50;3.73;;;13.70;38.20;;;;;;5075977;28;20425;-71
2023/08/29 01:24:38;;;;;;;5.20;3.97;;;13.70;37.10;;;;;;5074506;28;20427;-71
2023/08/29 01:27:05;;;;;;;5.03;3.50;;;13.70;37.90;;;;;;5075522;28;20494;-71
2023/08/29 01:29:32;;;;;;;5.40;4.17;;;13.70;38.20;;;;;;5075584;28;20844;-70
2023/08/29 01:31:59;;;;;;;5.50;4.83;;;13.70;36.70;;;;;;5075454;28;20956;-71
2023/08/29 01:34:26;;;;;;;4.93;4.43;;;13.70;37.60;;;;;;5074334;28;20460;-70
2023/08/29 01:36:52;;;;;;;4.77;4.13;;;13.70;37.20;;;;;;5075665;28;20525;-70
2023/08/29 01:39:17;;;;;;;4.93;4.43;;;13.70;38.80;;;;;;5075624;28;20924;-71
2023/08/29 01:41:43;;;;;;;5.40;4.40;;;13.70;37.90;;;;;;5075276;28;20194;-71
2023/08/29 01:44:09;;;;;;;7.40;4.93;;;13.70;37.90;;;;;;5074371;28;20243;-71
2023/08/29 01:46:36;;;;;;;5.10;4.20;;;13.60;38.60;;;;;;5075939;28;20200;-70
2023/08/29 01:49:03;;;;;;;7.60;4.10;;;13.60;38.80;;;;;;5075550;28;20174;-70
2023/08/29 01:51:29;;;;;;;6.60;4.50;;;13.60;39.40;;;;;;5117714;22;20869;-69
2023/08/29 01:53:55;;;;;;;5.13;4.43;;;13.60;39.40;;;;;;5114802;28;20479;-69
2023/08/29 01:56:22;;;;;;;7.03;4.83;;;13.60;42.40;;;;;;5114853;28;20420;-69
2023/08/29 01:58:53;;;;;;;5.03;4.43;;;13.60;42.50;;;;;;5114875;28;20494;-69
2023/08/29 02:01:18;;;;;;;5.50;3.90;;;13.50;41.20;;;;;;5114933;28;20426;-69
2023/08/29 02:03:44;;;;;;;4.33;3.87;;;13.50;41.80;;;;;;5096398;28;20768;-70
2023/08/29 02:06:11;;;;;;;5.93;4.27;;;13.50;42.10;;;;;;5114878;28;20653;-69
2023/08/29 02:08:37;;;;;;;5.07;4.40;;;13.60;41.60;;;;;;5114519;28;20640;-69
2023/08/29 02:11:03;;;;;;;7.83;5.50;;;13.60;40.30;;;;;;5113950;28;20463;-69
2023/08/29 02:13:28;;;;;;;5.00;4.13;;;13.50;40.60;;;;;;5114276;28;20461;-70
2023/08/29 02:15:54;;;;;;;6.10;4.83;;;13.50;42.40;;;;;;5114429;28;20178;-70
2023/08/29 02:18:19;;;;;;;5.93;5.43;;;13.50;42.80;;;;;;5114381;28;20645;-70
2023/08/29 02:20:45;;;;;;;5.60;4.73;;;13.60;43.20;;;;;;5114396;28;20261;-71
2023/08/29 02:23:11;;;;;;;5.33;4.50;;;13.60;42.00;;;;;;5114130;28;20168;-70
2023/08/29 02:25:36;;;;;;;4.43;3.80;;;13.50;40.90;;;;;;5114293;28;20172;-71
2023/08/29 02:28:02;;;;;;;6.83;5.87;;;13.50;41.90;;;;;;5114289;28;20542;-71
2023/08/29 02:30:27;;;;;;;5.47;4.37;;;13.50;40.60;;;;;;5114143;28;20240;-70
2023/08/29 02:32:53;;;;;;;5.30;4.57;;;13.50;39.80;;;;;;5113859;28;20192;-70
2023/08/29 02:35:18;;;;;;;5.63;5.13;;;13.50;39.60;;;;;;5114175;28;20172;-70
2023/08/29 02:37:44;;;;;;;5.87;5.33;;;13.50;39.30;;;;;;5114164;28;20225;-70
2023/08/29 02:40:10;;;;;;;4.93;3.97;;;13.50;39.30;;;;;;5114132;28;20179;-70
2023/08/29 02:42:36;;;;;;;6.50;5.13;;;13.50;38.40;;;;;;5113714;28;20195;-70
2023/08/29 02:45:03;;;;;;;8.37;4.07;;;13.40;36.90;;;;;;5095637;28;20425;-70
2023/08/29 02:47:29;;;;;;;6.63;5.87;;;13.40;38.60;;;;;;5114070;28;20409;-70
2023/08/29 02:49:54;;;;;;;6.97;4.90;;;13.30;39.10;;;;;;5113845;28;20557;-71
2023/08/29 02:52:20;;;;;;;6.87;3.97;;;13.20;39.00;;;;;;5113177;28;20225;-70
2023/08/29 02:54:45;;;;;;;5.67;5.10;;;13.30;39.10;;;;;;5113755;28;20267;-70
2023/08/29 02:57:11;;;;;;;5.53;4.83;;;13.40;40.30;;;;;;5113753;28;20164;-71
2023/08/29 02:59:37;;;;;;;6.37;5.10;;;13.50;40.70;;;;;;5113666;28;20196;-70
2023/08/29 03:02:03;;;;;;;5.17;4.67;;;13.50;39.30;;;;;;5113482;28;20549;-70
2023/08/29 03:04:30;;;;;;;6.07;5.30;;;13.40;39.10;;;;;;5113604;28;20203;-71
2023/08/29 03:06:55;;;;;;;5.67;5.17;;;13.40;39.20;;;;;;5113372;28;20413;-70
2023/08/29 03:09:21;;;;;;;6.37;5.77;;;13.50;39.30;;;;;;5113542;28;20560;-71
2023/08/29 03:11:46;;;;;;;6.57;5.90;;;13.50;40.10;;;;;;5113142;28;20214;-70
2023/08/29 03:14:12;;;;;;;5.73;5.00;;;13.50;40.40;;;;;;5113329;28;20206;-70
2023/08/29 03:16:37;;;;;;;7.73;6.93;;;13.50;41.20;;;;;;5113330;28;20259;-70
2023/08/29 03:19:03;;;;;;;6.63;4.97;;;13.50;39.30;;;;;;5113547;28;20184;-70
2023/08/29 03:21:28;;;;;;;7.00;6.30;;;13.50;41.00;;;;;;5113083;28;20195;-70
2023/08/29 03:23:54;;;;;;;6.20;5.60;;;13.50;39.30;;;;;;5112627;28;20172;-70
2023/08/29 03:26:20;;;;;;;7.43;5.03;;;13.50;41.40;;;;;;5113398;28;20180;-69
2023/08/29 03:28:45;;;;;;;12.93;5.93;;;13.50;40.70;;;;;;5113673;28;20172;-70
2023/08/29 03:31:15;;;;;;;6.63;6.03;;;13.60;42.40;;;;;;5113105;28;20734;-70
2023/08/29 03:33:43;;;;;;;7.37;6.10;;;13.60;41.60;;;;;;5112734;28;20192;-69
2023/08/29 03:36:09;;;;;;;5.80;5.20;;;13.60;39.40;;;;;;5113010;28;20453;-70
2023/08/29 03:38:36;;;;;;;6.37;5.70;;;13.50;39.30;;;;;;5113073;28;20421;-70
2023/08/29 03:41:03;;;;;;;7.20;5.90;;;13.50;38.60;;;;;;5112774;28;20436;-70
2023/08/29 03:43:30;;;;;;;5.90;5.00;;;13.50;37.70;;;;;;5112569;28;20502;-70
2023/08/29 03:46:03;;;;;;;6.40;5.80;;;13.50;36.30;;;;;;5112752;28;20419;-70
2023/08/29 03:48:30;;;;;;;8.43;5.97;;;13.50;38.40;;;;;;5112762;28;20421;-69
2023/08/29 03:50:58;;;;;;;7.37;5.50;;;13.60;39.40;;;;;;5112595;28;20442;-70
2023/08/29 03:53:24;;;;;;;6.10;5.17;;;13.60;38.80;;;;;;5094236;28;20984;-70
2023/08/29 03:55:49;;;;;;;5.90;5.30;;;13.60;39.40;;;;;;5112784;28;20829;-70
2023/08/29 03:58:15;;;;;;;8.50;6.63;;;13.60;38.00;;;;;;5112490;28;20406;-70
2023/08/29 04:00:42;;;;;;;6.07;5.47;;;13.60;39.40;;;;;;5113016;28;20188;-70
2023/08/29 04:03:08;;;;;;;9.43;6.13;;;13.60;40.70;;;;;;5112448;28;20536;-70
2023/08/29 04:05:37;;;;;;;6.20;5.60;;;13.50;38.20;;;;;;5094344;28;20421;-70
2023/08/29 04:08:06;;;;;;;6.37;5.77;;;13.60;37.90;;;;;;5112714;28;20176;-70
2023/08/29 04:10:37;;;;;;;8.60;7.60;;;13.60;37.00;;;;;;5112883;28;20419;-69
2023/08/29 04:13:03;;;;;;;5.90;5.40;;;13.70;38.40;;;;;;5112084;28;20453;-69
2023/08/29 04:15:28;;;;;;;7.63;6.37;;;13.60;38.90;;;;;;5112969;28;20413;-69
2023/08/29 04:17:54;;;;;;;7.90;7.10;;;13.50;37.50;;;;;;5114583;28;20176;-72
2023/08/29 04:20:21;;;;;;;7.90;7.10;;;13.50;37.40;;;;;;5114991;28;20180;-70
2023/08/29 04:22:46;;;;;;;7.97;7.17;;;13.50;39.30;;;;;;5112480;28;20653;-70
2023/08/29 04:25:12;;;;;;;7.93;7.13;;;13.50;38.70;;;;;;5112800;28;20442;-71
2023/08/29 04:27:38;;;;;;;9.50;7.97;;;13.50;40.30;;;;;;5112608;28;20172;-70
2023/08/29 04:30:04;;;;;;;7.47;6.73;;;13.60;39.40;;;;;;5113150;28;20226;-71
2023/08/29 04:32:36;;;;;;;10.63;7.90;;;13.60;37.90;;;;;;5112148;28;20196;-71
2023/08/29 04:35:04;;;;;;;9.17;8.00;;;13.60;36.50;;;;;;5114951;28;20411;-70
2023/08/29 04:37:29;;;;;;;8.20;6.93;;;13.60;36.80;;;;;;5116382;28;20420;-71
2023/08/29 04:39:55;;;;;;;7.77;6.87;;;13.60;39.30;;;;;;5116402;28;20409;-71
2023/08/29 04:42:20;;;;;;;11.70;6.43;;;13.60;39.10;;;;;;5116086;28;20204;-70
2023/08/29 04:44:46;;;;;;;8.40;7.60;;;13.70;38.80;;;;;;5098136;28;20183;-70
2023/08/29 04:47:11;;;;;;;7.30;6.37;;;13.70;39.00;;;;;;5118038;28;20192;-71
2023/08/29 04:49:37;;;;;;;10.23;7.53;;;13.70;39.50;;;;;;5098874;28;20191;-71
2023/08/29 04:52:03;;;;;;;8.30;7.10;;;13.70;38.60;;;;;;5115731;28;20225;-70
2023/08/29 04:54:29;;;;;;;7.50;6.73;;;13.70;37.30;;;;;;5115879;28;20549;-71
2023/08/29 04:56:54;;;;;;;12.90;8.17;;;13.70;38.70;;;;;;5116136;28;20173;-71
2023/08/29 04:59:20;;;;;;;7.83;7.00;;;13.80;38.90;;;;;;5116035;28;20417;-70
2023/08/29 05:01:45;;;;;;;12.00;7.67;;;13.70;36.30;;;;;;5115681;28;20300;-71
2023/08/29 05:04:12;;;;;;;8.53;7.70;;;13.80;37.40;;;;;;5115834;28;20540;-72
2023/08/29 05:06:38;;;;;;;7.97;7.17;;;13.90;36.50;;;;;;5115625;28;20180;-71
2023/08/29 05:09:06;;;;;;;7.80;6.70;;;13.90;34.90;;;;;;5115945;28;20441;-71
2023/08/29 05:11:32;;;;;;;7.13;6.43;;;13.80;34.30;;;;;;5115570;28;20465;-71
2023/08/29 05:13:58;;;;;;;7.10;6.20;;;13.70;33.00;;;;;;5117038;28;20499;-72
2023/08/29 05:16:23;;;;;;;8.13;7.00;;;13.70;34.20;;;;;;5098263;28;20177;-71
2023/08/29 05:18:49;;;;;;;8.77;6.70;;;13.70;34.20;;;;;;5116034;28;20191;-71
2023/08/29 05:21:14;;;;;;;8.97;7.50;;;13.80;34.40;;;;;;5115383;28;20215;-71
2023/08/29 05:23:40;;;;;;;9.80;8.13;;;13.80;34.40;;;;;;5115253;28;20212;-71
2023/08/29 05:26:05;;;;;;;13.53;8.40;;;13.80;34.30;;;;;;5115514;28;20177;-71
2023/08/29 05:28:31;;;;;;;7.93;6.73;;;13.80;34.40;;;;;;5115179;28;20188;-71
2023/08/29 05:30:56;;;;;;;9.97;7.77;;;13.80;35.60;;;;;;5115645;28;20271;-71
2023/08/29 05:33:22;;;;;;;9.10;8.17;;;13.80;35.90;;;;;;5114929;28;20215;-72
2023/08/29 05:35:47;;;;;;;12.50;8.77;;;13.80;34.30;;;;;;5115247;28;20180;-71
2023/08/29 05:38:13;;;;;;;9.63;8.63;;;13.80;34.30;;;;;;5096908;28;20593;-71
2023/08/29 05:40:38;;;;;;;9.67;7.90;;;13.70;34.10;;;;;;5115350;28;20692;-71
2023/08/29 05:43:04;;;;;;;10.63;9.63;;;13.70;34.90;;;;;;5114780;28;20208;-71
2023/08/29 05:45:30;;;;;;;9.23;8.43;;;13.80;36.20;;;;;;5114642;28;20244;-71
2023/08/29 05:47:55;;;;;;;9.90;8.90;;;13.70;36.20;;;;;;5115511;28;20181;-71
2023/08/29 05:50:21;;;;;;;10.40;8.43;;;13.70;36.90;;;;;;5115251;28;20450;-71
2023/08/29 05:52:47;;;;;;;14.13;10.10;;;13.80;34.40;;;;;;5114678;28;20177;-71
2023/08/29 05:55:12;;;;;;;11.23;9.43;;;13.80;35.60;;;;;;5115275;28;20169;-71
2023/08/29 05:57:38;;;;;;;18.13;9.87;;;13.90;36.50;;;;;;5115272;28;20180;-71
2023/08/29 06:00:07;;;;;;;9.90;8.90;;;13.90;36.20;;;;;;5115447;28;20255;-71
2023/08/29 06:02:34;;;;;;;8.73;7.83;;;13.90;36.50;;;;;;5114446;28;20240;-71
2023/08/29 06:04:59;;;;;;;10.90;8.50;;;14.00;36.90;;;;;;5114771;28;20415;-71
2023/08/29 06:07:25;;;;;;;9.33;8.43;;;13.90;35.80;;;;;;5114837;28;20407;-71
2023/08/29 06:09:51;;;;;;;9.90;8.87;;;13.90;35.30;;;;;;5114805;28;20176;-71
2023/08/29 06:12:16;;;;;;;9.47;8.60;;;13.80;34.40;;;;;;5114501;28;20731;-71
2023/08/29 06:14:42;;;;;;;12.80;10.33;;;13.80;34.40;;;;;;5114552;28;20247;-71
2023/08/29 06:17:08;;;;;;;11.63;7.63;;;13.80;36.60;;;;;;5114856;28;20184;-71
2023/08/29 06:19:33;;;;;;;10.30;8.90;;;13.90;37.00;;;;;;5114498;28;20578;-71
2023/08/29 06:21:59;;;;;;;12.10;9.70;;;14.00;38.40;;;;;;5096357;28;20210;-71
2023/08/29 06:24:24;;;;;;;12.90;9.50;;;14.00;37.10;;;;;;5114720;28;20180;-71
2023/08/29 06:26:50;;;;;;;10.87;9.10;;;14.10;36.70;;;;;;5114826;28;20522;-71
2023/08/29 06:29:16;;;;;;;13.17;9.30;;;14.10;35.80;;;;;;5115181;28;20225;-71
2023/08/29 06:31:42;;;;;;;10.33;9.23;;;14.10;37.90;;;;;;5115782;28;20611;-70
2023/08/29 06:34:08;;;;;;;11.97;10.50;;;14.10;37.50;;;;;;5116258;28;20552;-70
2023/08/29 06:36:33;;;;;;;14.93;10.87;;;14.10;36.30;;;;;;5115815;28;20410;-71
2023/08/29 06:39:00;;;;;;;13.63;10.33;;;14.00;36.60;;;;;;5115736;28;20173;-71
2023/08/29 06:41:26;;;;;;;12.00;10.80;;;14.10;37.00;;;;;;5115149;28;20188;-71
2023/08/29 06:43:51;;;;;;;12.27;11.00;;;14.00;36.30;;;;;;5116206;28;20426;-72
2023/08/29 06:46:17;;;;;;;13.57;10.03;;;14.00;38.20;;;;;;5114321;28;20212;-72
2023/08/29 06:48:43;;;;;;;20.43;9.57;;;14.00;38.60;;;;;;5113961;28;20185;-71
2023/08/29 06:51:09;;;;;;;11.40;10.13;;;14.10;39.80;;;;;;5113892;28;20243;-71
2023/08/29 06:53:34;;;;;;;11.10;9.63;;;14.20;40.50;;;;;;5113491;28;20560;-71
2023/08/29 06:56:00;;;;;;;12.40;10.17;;;14.10;36.10;;;;;;5115512;28;20418;-71
2023/08/29 06:58:26;;;;;;;17.90;14.43;;;14.00;37.10;;;;;;5115027;28;20207;-71
2023/08/29 07:00:52;;;;;;;30.57;17.10;;;14.10;38.80;;;;;;5095865;28;20658;-70
2023/08/29 07:03:18;;;;;;;12.00;10.80;;;14.20;40.80;;;;;;5114146;28;20176;-70
2023/08/29 07:05:44;;;;;;;9.47;8.47;;;14.30;39.60;;;;;;5114561;28;20776;-70
2023/08/29 07:08:10;;;;;;;11.60;10.27;;;14.40;38.10;;;;;;5114941;28;20251;-70
2023/08/29 07:10:35;;;;;;;14.63;13.20;;;14.30;36.30;;;;;;5114809;28;20388;-71
2023/08/29 07:13:01;;;;;;;13.70;11.30;;;14.20;38.10;;;;;;5113991;28;20202;-70
2023/08/29 07:15:26;;;;;;;12.93;11.30;;;14.20;38.90;;;;;;5113835;28;20248;-70
2023/08/29 07:17:53;;;;;;;13.70;10.97;;;14.20;39.90;;;;;;5113410;28;20172;-70
2023/08/29 07:20:19;;;;;;;13.03;10.47;;;14.40;37.30;;;;;;5113583;28;20203;-70
2023/08/29 07:22:45;;;;;;;10.97;9.77;;;14.40;37.20;;;;;;5115482;28;20418;-70
2023/08/29 07:25:11;;;;;;;12.17;10.87;;;14.30;37.20;;;;;;5113605;28;20793;-71
2023/08/29 07:27:37;;;;;;;11.60;10.40;;;14.40;37.50;;;;;;5113644;28;20184;-71
2023/08/29 07:30:03;;;;;;;12.83;11.10;;;14.50;37.50;;;;;;5113458;28;20452;-71
2023/08/29 07:32:30;;;;;;;14.20;10.53;;;14.40;36.10;;;;;;5094702;28;20985;-71
2023/08/29 07:34:56;;;;;;;17.50;12.33;;;14.40;37.40;;;;;;5113335;28;20461;-71
2023/08/29 07:37:22;;;;;;;15.47;12.57;;;14.40;36.40;;;;;;5113632;28;20418;-71
2023/08/29 07:39:48;;;;;;;12.90;10.73;;;14.30;37.50;;;;;;5113082;28;20406;-71
2023/08/29 07:42:13;;;;;;;11.73;10.53;;;14.40;40.10;;;;;;5112711;28;20434;-71
2023/08/29 07:44:39;;;;;;;10.83;9.73;;;14.50;37.20;;;;;;5113074;28;20587;-71
2023/08/29 07:47:04;;;;;;;12.23;10.93;;;14.60;37.20;;;;;;5112981;28;20259;-71
2023/08/29 07:49:30;;;;;;;12.30;11.10;;;14.70;35.90;;;;;;5112909;28;20196;-71
2023/08/29 07:51:56;;;;;;;11.70;10.40;;;14.70;36.50;;;;;;5115360;28;20216;-71
2023/08/29 07:54:21;;;;;;;13.63;10.53;;;14.80;35.50;;;;;;5113978;28;20199;-71
2023/08/29 07:56:47;;;;;;;13.90;11.37;;;14.80;34.90;;;;;;5113677;28;20190;-72
2023/08/29 07:59:13;;;;;;;13.67;10.90;;;14.90;35.80;;;;;;5113692;28;20172;-71
2023/08/29 08:01:39;;;;;;;13.00;11.10;;;15.00;33.50;;;;;;5112812;28;20572;-71
2023/08/29 08:04:05;;;;;;;13.67;10.80;;;14.90;32.40;;;;;;5113079;28;20435;-71
2023/08/29 08:06:30;;;;;;;12.90;11.00;;;14.90;31.90;;;;;;5113075;28;20176;-71
2023/08/29 08:08:56;;;;;;;12.13;10.00;;;15.00;30.10;;;;;;5112532;28;20188;-71
2023/08/29 08:11:25;;;;;;;11.20;8.93;;;14.90;31.20;;;;;;5112709;28;20203;-71
2023/08/29 08:13:51;;;;;;;13.17;11.27;;;14.80;32.10;;;;;;5114778;28;20692;-71
2023/08/29 08:16:16;;;;;;;14.70;10.90;;;14.80;33.30;;;;;;5114542;28;20418;-71
2023/08/29 08:18:42;;;;;;;13.23;11.33;;;14.60;33.40;;;;;;5113344;28;20218;-71
2023/08/29 08:21:07;;;;;;;12.63;11.33;;;14.60;35.00;;;;;;5112609;28;20251;-71
2023/08/29 08:23:33;;;;;;;9.83;8.80;;;14.70;35.20;;;;;;5113275;28;20174;-71
2023/08/29 08:25:59;;;;;;;10.50;8.87;;;14.60;35.00;;;;;;5112797;28;20534;-71
2023/08/29 08:28:25;;;;;;;12.00;10.83;;;14.60;35.10;;;;;;5095999;28;20215;-71
2023/08/29 08:30:50;;;;;;;13.40;11.67;;;14.60;35.00;;;;;;5095014;28;20742;-71
2023/08/29 08:33:16;;;;;;;14.70;13.30;;;14.70;35.50;;;;;;5112475;28;20458;-71
2023/08/29 08:35:42;;;;;;;11.63;10.43;;;14.70;37.00;;;;;;5112854;28;20641;-71
2023/08/29 08:38:08;;;;;;;13.00;11.80;;;14.60;35.00;;;;;;5114397;28;20183;-71
2023/08/29 08:40:35;;;;;;;12.80;11.60;;;14.70;37.00;;;;;;5112290;28;20484;-71
2023/08/29 08:43:04;;;;;;;12.10;10.37;;;14.80;35.20;;;;;;5113465;28;20536;-71
2023/08/29 08:45:29;;;;;;;15.37;13.03;;;15.10;31.80;;;;;;5112763;28;20930;-71
2023/08/29 08:47:57;;;;;;;16.20;12.00;;;15.20;32.60;;;;;;5112646;28;20406;-71
2023/08/29 08:50:24;;;;;;;13.80;12.40;;;15.30;30.40;;;;;;5112073;28;20184;-71
2023/08/29 08:52:51;;;;;;;11.20;10.10;;;15.20;30.00;;;;;;5112053;28;20394;-72
2023/08/29 08:55:17;;;;;;;11.87;10.80;;;15.30;28.90;;;;;;5112722;28;20769;-71
2023/08/29 08:57:43;;;;;;;11.87;10.63;;;15.40;28.70;;;;;;5112766;28;20402;-71
2023/08/29 09:00:09;;;;;;;12.50;10.83;;;15.60;27.70;;;;;;5112737;28;20507;-71
2023/08/29 09:02:37;;;;;;;12.97;11.57;;;15.80;28.50;;;;;;5111797;28;20430;-71
2023/08/29 09:05:03;;;;;;;12.53;10.97;;;15.70;27.60;;;;;;5111931;28;20934;-71
2023/08/29 09:07:29;;;;;;;12.40;11.10;;;15.50;28.80;;;;;;5112665;28;20406;-71
2023/08/29 09:10:11;;;;;;;12.87;11.20;;;15.50;30.50;;;;;;5112174;28;20191;-72
2023/08/29 09:12:46;;;;;;;12.20;10.47;;;15.60;29.70;;;;;;5111574;28;20195;-71
2023/08/29 09:15:12;;;;;;;12.60;10.33;;;15.80;27.80;;;;;;5111768;28;20774;-71
2023/08/29 09:17:47;;;;;;;12.00;10.80;;;15.90;25.20;;;;;;5111611;28;20418;-71
2023/08/29 09:20:13;;;;;;;11.87;10.70;;;15.80;26.10;;;;;;5111884;28;20171;-70
2023/08/29 09:22:42;;;;;;;10.70;9.70;;;15.80;25.80;;;;;;5114640;28;20434;-70
2023/08/29 09:25:09;;;;;;;11.40;10.10;;;15.70;27.60;;;;;;5115625;28;20768;-70
2023/08/29 09:27:48;;;;;;;10.40;9.37;;;15.60;27.60;;;;;;5116614;28;20417;-71
2023/08/29 09:30:19;;;;;;;12.47;9.40;;;15.50;28.70;;;;;;5116489;28;20921;-69
2023/08/29 09:32:50;;;;;;;11.30;10.10;;;15.50;29.50;;;;;;5115696;28;20406;-69
2023/08/29 09:35:19;;;;;;;12.10;10.80;;;15.40;30.40;;;;;;5115387;28;20768;-69
2023/08/29 09:37:54;;;;;;;11.70;9.70;;;15.30;30.40;;;;;;5115212;28;20450;-69
2023/08/29 09:40:21;;;;;;;11.07;9.97;;;15.40;30.40;;;;;;5115090;28;20977;-70
2023/08/29 09:42:53;;;;;;;12.27;10.97;;;15.50;30.70;;;;;;5114761;28;20410;-70
2023/08/29 09:45:19;;;;;;;11.63;10.43;;;15.90;30.10;;;;;;5115124;28;20920;-70
2023/08/29 09:47:44;;;;;;;12.20;10.37;;;15.90;27.70;;;;;;5115212;28;20406;-69
2023/08/29 09:50:10;;;;;;;11.17;10.00;;;15.90;27.50;;;;;;5114955;28;20274;-70
2023/08/29 09:52:36;;;;;;;10.90;9.27;;;15.80;26.60;;;;;;5114469;28;20224;-70
2023/08/29 09:55:03;;;;;;;12.93;9.77;;;15.70;25.50;;;;;;5114891;28;20208;-70
2023/08/29 09:57:31;;;;;;;11.43;10.43;;;15.40;29.40;;;;;;5115007;28;20407;-69
2023/08/29 09:59:58;;;;;;;10.73;8.27;;;15.50;29.60;;;;;;5115013;28;20406;-69
2023/08/29 10:02:28;;;;;;;8.53;7.63;;;15.50;29.70;;;;;;5114764;28;20429;-70
2023/08/29 10:05:06;;;;;;;13.60;9.87;;;15.70;28.50;;;;;;5114926;28;20398;-70
2023/08/29 10:07:40;;;;;;;9.00;8.10;;;15.80;26.50;;;;;;5114979;28;20410;-69
2023/08/29 10:10:07;;;;;;;8.60;7.80;;;15.90;26.70;;;;;;5114818;28;20406;-69
2023/08/29 10:12:34;;;;;;;9.23;8.20;;;16.10;26.90;;;;;;5114353;28;20430;-69
2023/08/29 10:15:01;;;;;;;10.70;9.70;;;16.20;27.40;;;;;;5114393;28;20844;-69
2023/08/29 10:17:26;;;;;;;10.63;9.47;;;16.20;23.80;;;;;;5114498;28;20579;-69
2023/08/29 10:19:53;;;;;;;11.27;8.07;;;16.10;25.30;;;;;;5114791;28;20832;-69
2023/08/29 10:22:20;;;;;;;7.93;7.13;;;16.20;25.90;;;;;;5114032;28;20236;-69
2023/08/29 10:24:47;;;;;;;11.83;9.67;;;16.20;25.80;;;;;;5114465;28;20884;-69
2023/08/29 10:27:13;;;;;;;13.13;10.77;;;16.30;25.70;;;;;;5096105;28;20419;-69
2023/08/29 10:29:38;;;;;;;10.27;8.43;;;16.50;26.30;;;;;;5114406;28;20418;-69
2023/08/29 10:32:05;;;;;;;8.90;7.47;;;16.90;23.10;;;;;;5113305;28;20196;-69
2023/08/29 10:34:31;;;;;;;8.37;7.27;;;17.50;21.90;;;;;;5114160;28;20207;-69
2023/08/29 10:36:58;;;;;;;10.07;6.67;;;18.10;14.20;;;;;;5114080;28;20892;-69
2023/08/29 10:39:27;;;;;;;5.27;4.77;;;18.50;11.90;;;;;;5114061;28;20165;-69
2023/08/29 10:41:55;;;;;;;7.00;6.40;;;18.80;6.80;;;;;;5095270;28;20510;-69
2023/08/29 10:44:40;;;;;;;7.37;5.93;;;19.00;7.50;;;;;;5113907;28;20407;-69
2023/08/29 10:47:20;;;;;;;6.90;6.20;;;19.00;7.50;;;;;;5095631;28;20503;-69
2023/08/29 10:49:47;;;;;;;6.97;6.33;;;18.90;8.60;;;;;;5114079;28;20430;-69
2023/08/29 10:52:14;;;;;;;6.50;5.90;;;18.90;10.50;;;;;;5113371;28;20457;-69
2023/08/29 10:54:40;;;;;;;5.90;5.20;;;18.60;6.60;;;;;;5114048;28;20465;-69
2023/08/29 10:57:29;;;;;;;5.67;3.43;;;18.30;7.00;;;;;;5095440;28;20726;-69
2023/08/29 10:59:55;;;;;;;5.27;3.93;;;18.10;7.50;;;;;;5113495;28;20426;-69
2023/08/29 11:02:31;;;;;;;6.73;5.17;;;18.20;9.10;;;;;;5095063;28;20521;-69
2023/08/29 11:05:03;;;;;;;6.33;5.73;;;17.90;8.50;;;;;;5113595;28;20425;-69
2023/08/29 11:07:28;;;;;;;5.80;5.17;;;17.70;11.60;;;;;;5113493;28;20418;-69
2023/08/29 11:10:14;;;;;;;6.40;5.80;;;17.80;11.40;;;;;;5113924;28;20444;-69
2023/08/29 11:13:04;;;;;;;6.07;5.47;;;18.10;11.20;;;;;;5113142;28;20193;-69
2023/08/29 11:15:47;;;;;;;6.20;5.53;;;18.30;9.10;;;;;;5113955;28;20806;-69
2023/08/29 11:18:30;;;;;;;5.50;5.00;;;18.50;8.10;;;;;;5113595;28;20432;-69
2023/08/29 11:20:56;;;;;;;5.33;4.83;;;18.90;6.80;;;;;;5113857;28;20513;-69
2023/08/29 11:23:22;;;;;;;5.90;5.00;;;19.00;4.70;;;;;;5112903;28;20984;-69
2023/08/29 11:25:51;;;;;;;4.87;4.40;;;19.10;4.50;;;;;;5113221;28;20251;-69
2023/08/29 11:28:17;;;;;;;7.20;6.50;;;19.20;5.40;;;;;;5113237;28;20410;-69
2023/08/29 11:30:45;;;;;;;9.40;6.30;;;19.30;7.10;;;;;;5113655;28;20434;-69
2023/08/29 11:33:12;;;;;;;6.50;5.90;;;19.30;5.20;;;;;;5112718;28;20450;-70
2023/08/29 11:35:38;;;;;;;5.50;5.00;;;19.40;4.80;;;;;;5113385;28;20774;-70
2023/08/29 11:38:05;;;;;;;6.10;5.53;;;19.30;5.50;;;;;;5113029;28;20899;-69
2023/08/29 11:40:32;;;;;;;5.57;5.10;;;19.30;4.80;;;;;;5112909;28;20436;-70
2023/08/29 11:42:58;;;;;;;4.17;3.57;;;19.20;5.40;;;;;;5112967;28;20403;-70
2023/08/29 11:45:25;;;;;;;4.73;4.10;;;19.20;1.00;;;;;;5112174;28;20415;-70
2023/08/29 11:47:51;;;;;;;6.33;5.03;;;18.80;4.00;;;;;;5112640;28;20406;-72
2023/08/29 11:50:17;;;;;;;5.20;4.50;;;18.80;4.80;;;;;;5112721;28;20930;-70
2023/08/29 11:52:43;;;;;;;9.13;4.03;;;19.00;3.30;;;;;;5112177;28;20241;-70
2023/08/29 11:55:10;;;;;;;5.10;4.17;;;19.10;4.30;;;;;;5112554;28;20176;-71
2023/08/29 11:57:39;;;;;;;5.40;4.90;;;18.90;4.00;;;;;;5112807;28;20175;-70
2023/08/29 12:00:08;;;;;;;5.10;4.60;;;18.50;5.70;;;;;;5112624;28;20800;-70
2023/08/29 12:02:33;;;;;;;5.67;5.17;;;18.10;7.60;;;;;;5094102;28;20433;-71
2023/08/29 12:04:59;;;;;;;6.13;5.53;;;18.00;6.80;;;;;;5112425;28;20867;-70
2023/08/29 12:07:31;;;;;;;6.90;6.00;;;17.70;7.10;;;;;;5112574;28;20234;-70
2023/08/29 12:10:14;;;;;;;5.73;5.20;;;17.50;10.10;;;;;;5112648;28;20665;-70
2023/08/29 12:12:40;;;;;;;6.37;5.43;;;17.40;9.20;;;;;;5112070;28;20432;-70
2023/08/29 12:15:10;;;;;;;7.33;6.27;;;17.30;10.30;;;;;;5093949;28;20529;-70
2023/08/29 12:17:39;;;;;;;7.03;6.43;;;17.30;11.50;;;;;;5112450;28;20406;-70
2023/08/29 12:20:13;;;;;;;12.47;6.10;;;17.50;12.80;;;;;;5112716;28;20434;-70
2023/08/29 12:22:42;;;;;;;10.60;5.07;;;17.40;12.30;;;;;;5112093;28;20437;-70
2023/08/29 12:25:08;;;;;;;6.33;5.73;;;17.40;13.10;;;;;;5112298;28;20799;-70
2023/08/29 12:27:33;;;;;;;6.90;5.77;;;17.30;15.30;;;;;;5112345;28;20489;-71
2023/08/29 12:29:59;;;;;;;9.93;6.77;;;17.00;14.50;;;;;;5112278;28;20406;-71
2023/08/29 12:32:26;;;;;;;6.27;5.77;;;16.80;18.70;;;;;;5111968;28;20193;-70
2023/08/29 12:34:51;;;;;;;5.17;4.73;;;16.80;18.70;;;;;;5112174;28;20203;-70
2023/08/29 12:37:17;;;;;;;5.50;5.00;;;17.00;17.20;;;;;;5112270;28;20784;-70
2023/08/29 12:39:44;;;;;;;6.73;5.60;;;17.20;18.00;;;;;;5112249;28;20617;-70